Deer Mountain, Utah
Current Conditions -  °F | °C
As of 10:53 AM on Thursday 27 Nov 2014 (Local Time) from KEVW Reporting Station
Clear Clear  
Wind Chill: 44°   Ceiling: Unl
Heat Index: 49°   Visibility: 10mi
Dew Point: 21°   Wind: 12mph
Humidity: 33%   Direction: 200°SSW
Pressure: 30.35"   Gusts: NA
Location:  40.8065°N, 110.723°W
Report Text: KEVW 271753Z AUTO 20010KT 10SM CLR 09/M06 A3035 RMK AO2 SLP250 T00941061 10094 20011 50005
Loading
Personal Weather Stations






























Interactive Weather Map New forecast layout! Learn more

10-Day Weather Forecast

Advertisements
Track Severe Weather on mobile